createdAt,value
2023-01-02T00:00:44.330Z,25.02
2023-01-02T00:03:12.833Z,31.45
2023-01-02T00:05:49.969Z,24.35
2023-01-02T00:08:29.810Z,31.05
2023-01-02T00:11:39.177Z,29.17
2023-01-02T00:14:06.546Z,26.30
2023-01-02T00:16:36.342Z,28.85
2023-01-02T00:19:03.663Z,29.55
2023-01-02T00:21:34.267Z,32.95
2023-01-02T00:24:01.772Z,28.90
2023-01-02T00:26:30.949Z,29.17
2023-01-02T00:29:04.150Z,21.50
2023-01-02T00:31:31.629Z,25.00
2023-01-02T00:36:40.446Z,30.95
2023-01-02T00:39:07.393Z,23.60
2023-01-02T00:41:37.240Z,29.67
2023-01-02T00:44:04.789Z,28.35
2023-01-02T00:46:31.765Z,27.10
2023-01-02T00:49:07.899Z,24.17
2023-01-02T00:51:34.816Z,38.20
2023-01-02T00:54:02.010Z,26.80
2023-01-02T00:59:40.805Z,25.27
2023-01-02T01:02:13.701Z,22.25
2023-01-02T01:05:27.142Z,25.27
2023-01-02T01:07:56.143Z,28.88
2023-01-02T01:10:25.014Z,25.17
2023-01-02T01:13:22.099Z,29.40
2023-01-02T01:15:49.438Z,28.30
2023-01-02T01:18:19.486Z,33.83
2023-01-02T01:20:56.113Z,28.70
2023-01-02T01:23:54.657Z,29.08
2023-01-02T01:29:36.088Z,19.35
2023-01-02T01:32:21.723Z,26.15
2023-01-02T01:34:51.432Z,34.20
2023-01-02T01:37:19.870Z,23.92
2023-01-02T01:39:46.950Z,25.27
2023-01-02T01:42:14.816Z,26.70
2023-01-02T01:45:00.618Z,26.45
2023-01-02T01:47:44.134Z,23.23
2023-01-02T01:50:24.444Z,26.80
2023-01-02T01:52:57.804Z,27.25
2023-01-02T01:55:31.238Z,28.25
2023-01-02T01:58:02.581Z,32.42
2023-01-02T02:00:30.367Z,31.67
2023-01-02T02:03:18.117Z,28.30
2023-01-02T02:05:46.308Z,29.13
2023-01-02T02:08:19.081Z,32.45
2023-01-02T02:10:47.428Z,26.83
2023-01-02T02:13:14.984Z,30.20
2023-01-02T02:16:01.348Z,26.40
2023-01-02T02:19:03.103Z,26.90
2023-01-02T02:22:00.942Z,26.70
2023-01-02T02:24:52.330Z,35.47
2023-01-02T02:27:25.327Z,25.02
2023-01-02T02:30:21.663Z,32.42
2023-01-02T02:33:06.752Z,32.03
2023-01-02T02:38:26.328Z,23.10
2023-01-02T02:41:19.699Z,39.58
2023-01-02T02:44:20.905Z,22.38
2023-01-02T02:47:13.485Z,29.98
2023-01-02T02:49:49.518Z,30.92
2023-01-02T02:52:52.728Z,28.88
2023-01-02T02:55:41.249Z,25.77
2023-01-02T02:58:08.942Z,25.23
2023-01-02T03:00:36.596Z,24.63
2023-01-02T03:03:15.332Z,28.55
2023-01-02T03:05:48.162Z,29.48
2023-01-02T03:08:45.025Z,25.10
2023-01-02T03:11:13.212Z,26.90
2023-01-02T03:13:52.471Z,36.28
2023-01-02T03:16:37.026Z,28.02
2023-01-02T03:19:14.795Z,28.92
2023-01-02T03:22:03.582Z,29.00
2023-01-02T03:25:15.168Z,31.95
2023-01-02T03:34:09.527Z,23.77
2023-01-02T03:36:45.168Z,23.08
2023-01-02T03:39:24.329Z,36.45
2023-01-02T03:41:58.107Z,27.40
2023-01-02T03:44:31.380Z,29.10
2023-01-02T03:47:23.474Z,25.95
2023-01-02T03:50:12.666Z,22.33
2023-01-02T03:52:58.703Z,25.27
2023-01-02T03:55:34.766Z,24.35
2023-01-02T03:58:07.920Z,33.05
2023-01-02T04:01:14.273Z,21.60
2023-01-02T04:03:54.049Z,20.88
2023-01-02T04:09:18.815Z,24.73
2023-01-02T04:11:51.506Z,22.88
2023-01-02T04:14:24.939Z,19.95
2023-01-02T04:16:55.143Z,21.83
2023-01-02T04:19:26.965Z,19.63
2023-01-02T04:21:58.231Z,21.38
2023-01-02T04:24:35.204Z,23.15
2023-01-02T04:27:11.034Z,21.73
2023-01-02T04:29:38.272Z,19.73
2023-01-02T04:32:17.637Z,24.60
2023-01-02T04:34:46.517Z,18.77
2023-01-02T04:37:40.922Z,17.42
2023-01-02T04:40:27.549Z,21.20
2023-01-02T04:42:55.361Z,15.82
2023-01-02T04:46:11.995Z,19.58
2023-01-02T04:49:54.825Z,24.42
2023-01-02T04:52:21.835Z,20.10
2023-01-02T04:58:16.409Z,16.70
2023-01-02T05:00:43.754Z,17.25
2023-01-02T05:03:11.723Z,18.02
2023-01-02T05:05:38.677Z,21.88
2023-01-02T05:08:09.326Z,26.05
2023-01-02T05:10:39.228Z,21.25
2023-01-02T05:13:06.094Z,24.83
2023-01-02T05:15:33.071Z,17.42
2023-01-02T05:18:00.111Z,27.52
2023-01-02T05:20:27.004Z,21.42
2023-01-02T05:26:26.693Z,26.58
2023-01-02T05:28:54.562Z,20.23
2023-01-02T05:31:40.314Z,21.15
2023-01-02T05:34:14.812Z,21.27
2023-01-02T05:36:42.267Z,23.00
2023-01-02T05:39:33.990Z,21.48
2023-01-02T05:42:00.979Z,27.98
2023-01-02T05:44:32.266Z,26.17
2023-01-02T05:46:59.183Z,22.92
2023-01-02T05:49:26.137Z,24.58
2023-01-02T05:52:11.732Z,22.08
2023-01-02T05:54:38.703Z,24.52
2023-01-02T05:57:05.547Z,23.95
2023-01-02T05:59:35.912Z,24.20
2023-01-02T06:02:03.609Z,29.27
2023-01-02T06:04:31.031Z,18.60
2023-01-02T06:06:58.126Z,28.58
2023-01-02T06:09:43.772Z,19.98
2023-01-02T06:12:10.739Z,19.67
2023-01-02T06:14:44.909Z,19.75
2023-01-02T06:17:37.006Z,23.25
2023-01-02T06:20:04.251Z,27.48
2023-01-02T06:22:31.151Z,24.10
2023-01-02T06:24:58.678Z,23.05
2023-01-02T06:27:31.757Z,21.58
2023-01-02T06:30:12.974Z,28.33
2023-01-02T06:33:07.084Z,26.42
2023-01-02T06:35:34.080Z,19.27
2023-01-02T06:39:03.815Z,14.88
2023-01-02T06:45:10.169Z,17.55
2023-01-02T06:47:40.228Z,19.50
2023-01-02T06:50:11.238Z,14.55
2023-01-02T06:52:41.097Z,14.70
2023-01-02T06:55:08.855Z,21.88
2023-01-02T06:57:35.876Z,18.77
2023-01-02T07:00:21.285Z,17.85
2023-01-02T07:03:16.885Z,17.50
2023-01-02T07:08:33.889Z,15.02
2023-01-02T07:11:24.863Z,24.83
2023-01-02T07:14:08.493Z,23.65
2023-01-02T07:16:39.410Z,26.88
2023-01-02T07:19:09.625Z,27.85
2023-01-02T07:21:36.560Z,19.63
2023-01-02T07:24:04.481Z,26.38
2023-01-02T07:26:31.437Z,27.98
2023-01-02T07:28:59.063Z,27.25
2023-01-02T07:31:29.353Z,26.88
2023-01-02T07:33:56.364Z,28.33
2023-01-02T07:36:24.375Z,24.40
2023-01-02T07:38:53.179Z,26.45
2023-01-02T07:41:42.160Z,19.15
2023-01-02T07:44:14.335Z,27.73
2023-01-02T07:46:41.434Z,27.02
2023-01-02T07:49:08.403Z,24.00
2023-01-02T07:51:35.365Z,20.58
2023-01-02T07:54:02.400Z,27.48
2023-01-02T07:56:29.403Z,25.02
2023-01-02T07:59:34.001Z,26.83
2023-01-02T08:02:19.949Z,18.92
2023-01-02T08:04:47.018Z,13.50
2023-01-02T08:07:13.953Z,22.88
2023-01-02T08:09:40.944Z,14.95
2023-01-02T08:12:07.841Z,18.15
2023-01-02T08:14:34.787Z,29.00
2023-01-02T08:17:02.554Z,20.23
2023-01-02T08:19:29.641Z,21.23
2023-01-02T08:24:41.200Z,19.33
2023-01-02T08:27:08.148Z,28.52
2023-01-02T08:29:35.045Z,23.80
2023-01-02T08:32:02.014Z,18.77
2023-01-02T08:34:28.952Z,23.88
2023-01-02T08:36:55.838Z,16.42
2023-01-02T08:39:22.732Z,32.08
2023-01-02T08:41:49.657Z,24.20
2023-01-02T08:44:17.319Z,22.17
2023-01-02T08:46:44.410Z,21.42
2023-01-02T08:49:12.348Z,16.73
2023-01-02T08:51:39.497Z,19.42
2023-01-02T08:54:06.617Z,14.13
2023-01-02T08:56:34.052Z,14.77
2023-01-02T08:59:12.067Z,16.48
2023-01-02T09:01:39.788Z,17.70
2023-01-02T09:04:12.074Z,21.88
2023-01-02T09:06:40.068Z,17.83
2023-01-02T09:09:11.373Z,15.88
2023-01-02T09:11:45.279Z,13.38
2023-01-02T09:14:12.322Z,27.52
2023-01-02T09:16:39.410Z,20.27
2023-01-02T09:19:06.481Z,21.65
2023-01-02T09:21:33.431Z,16.10
2023-01-02T09:24:00.698Z,20.58
2023-01-02T09:26:27.857Z,27.40
2023-01-02T09:28:54.865Z,27.45
2023-01-02T09:31:22.285Z,14.93
2023-01-02T09:33:49.525Z,14.50
2023-01-02T09:36:19.461Z,20.65
2023-01-02T09:39:00.805Z,19.67
2023-01-02T09:41:37.363Z,18.13
2023-01-02T09:44:28.732Z,17.33
2023-01-02T09:47:11.315Z,15.57
2023-01-02T09:50:10.303Z,21.67
2023-01-02T09:52:41.737Z,40.85
2023-01-02T09:55:27.415Z,31.88
2023-01-02T09:58:14.528Z,25.98
2023-01-02T10:01:00.583Z,17.00
2023-01-02T10:03:49.245Z,20.95
2023-01-02T10:06:20.333Z,23.88
2023-01-02T10:09:08.535Z,29.40
2023-01-02T10:11:56.812Z,29.45
2023-01-02T10:14:35.005Z,31.38
2023-01-02T10:17:08.497Z,19.13
2023-01-02T10:19:50.275Z,22.88
2023-01-02T10:22:27.672Z,20.42
2023-01-02T10:25:03.558Z,30.08
2023-01-02T10:27:38.237Z,31.52
2023-01-02T10:32:59.952Z,23.30
2023-01-02T10:35:34.607Z,25.88
2023-01-02T10:38:02.340Z,32.08
2023-01-02T10:40:31.882Z,25.98
2023-01-02T10:43:00.944Z,29.58
2023-01-02T10:45:28.835Z,35.28
2023-01-02T10:47:55.707Z,32.55
2023-01-02T10:53:37.183Z,29.35
2023-01-02T10:56:18.839Z,33.90
2023-01-02T10:58:50.715Z,21.77
2023-01-02T11:01:22.393Z,26.77
2023-01-02T11:04:10.393Z,25.73
2023-01-02T11:07:10.767Z,23.33
2023-01-02T11:09:38.420Z,36.45
2023-01-02T11:12:14.213Z,26.10
2023-01-02T11:14:41.682Z,23.55
2023-01-02T11:17:20.985Z,23.33
2023-01-02T11:19:51.486Z,26.40
2023-01-02T11:22:21.612Z,36.75
2023-01-02T11:25:02.488Z,27.08
2023-01-02T11:30:47.338Z,24.73
2023-01-02T11:33:14.301Z,30.15
2023-01-02T11:36:05.744Z,50.42
2023-01-02T11:38:59.274Z,23.77
2023-01-02T11:41:46.197Z,25.40
2023-01-02T11:44:39.453Z,35.55
2023-01-02T11:47:11.949Z,23.85
2023-01-02T11:49:46.046Z,35.05
2023-01-02T11:52:27.855Z,35.95
2023-01-02T11:54:59.586Z,30.73
2023-01-02T11:57:38.996Z,24.90
2023-01-02T12:00:13.182Z,28.17
2023-01-02T12:02:53.183Z,35.22
2023-01-02T12:05:33.127Z,24.05
2023-01-02T12:08:07.024Z,23.33
2023-01-02T12:11:04.637Z,27.27
2023-01-02T12:13:49.724Z,32.40
2023-01-02T12:16:34.538Z,23.65
2023-01-02T12:19:39.975Z,34.15
2023-01-02T12:22:09.551Z,22.95
2023-01-02T12:24:45.422Z,26.75
2023-01-02T12:27:36.919Z,31.35
2023-01-02T12:30:38.670Z,22.35
2023-01-02T12:33:22.195Z,26.38
2023-01-02T12:36:15.676Z,28.55
2023-01-02T12:39:16.957Z,26.27
2023-01-02T12:42:04.500Z,29.48
2023-01-02T12:44:40.871Z,27.13
2023-01-02T12:47:25.929Z,29.17
2023-01-02T12:50:08.509Z,23.60
2023-01-02T12:52:51.719Z,34.03
2023-01-02T12:55:56.048Z,20.80
2023-01-02T12:59:00.101Z,19.52
2023-01-02T13:01:59.425Z,26.02
2023-01-02T13:04:55.897Z,32.38
2023-01-02T13:07:37.227Z,22.70
2023-01-02T13:10:06.125Z,22.35
2023-01-02T13:12:35.877Z,35.25
2023-01-02T13:15:19.023Z,26.83
2023-01-02T13:17:51.842Z,28.25
2023-01-02T13:20:40.261Z,21.48
2023-01-02T13:23:37.104Z,23.10
2023-01-02T13:26:26.018Z,25.92
2023-01-02T13:28:55.048Z,27.20
2023-01-02T13:34:22.123Z,22.08
2023-01-02T13:36:50.658Z,27.73
2023-01-02T13:39:26.086Z,22.65
2023-01-02T13:42:20.587Z,18.38
2023-01-02T13:44:52.671Z,16.93
2023-01-02T13:47:39.401Z,28.13
2023-01-02T13:50:23.176Z,23.17
2023-01-02T13:53:01.872Z,16.95
2023-01-02T13:55:35.313Z,26.88
2023-01-02T13:58:20.432Z,20.10
2023-01-02T14:00:54.232Z,20.48
2023-01-02T14:06:30.890Z,23.27
2023-01-02T14:09:06.723Z,20.90
2023-01-02T14:12:03.098Z,24.63
2023-01-02T14:14:43.289Z,27.33
2023-01-02T14:17:47.883Z,22.25
2023-01-02T14:23:30.831Z,25.85
2023-01-02T14:25:57.833Z,20.15
2023-01-02T14:28:37.070Z,20.90
2023-01-02T14:31:34.234Z,17.77
2023-01-02T14:34:01.575Z,18.10
2023-01-02T14:36:50.231Z,19.58
2023-01-02T14:39:31.086Z,14.25
2023-01-02T14:42:50.150Z,23.17
2023-01-02T14:45:20.635Z,23.17
2023-01-02T14:47:52.655Z,20.13
2023-01-02T14:50:28.765Z,25.95
2023-01-02T14:53:03.271Z,18.05
2023-01-02T14:55:41.627Z,32.55
2023-01-02T14:58:47.090Z,20.48
2023-01-02T15:01:42.239Z,28.90
2023-01-02T15:04:23.502Z,35.08
2023-01-02T15:07:28.413Z,43.88
2023-01-02T15:10:06.458Z,37.03
2023-01-02T15:13:01.679Z,27.38
2023-01-02T15:18:16.441Z,35.80
2023-01-02T15:20:49.183Z,34.13
2023-01-02T15:23:27.333Z,37.80
2023-01-02T15:26:31.493Z,27.20
2023-01-02T15:28:42.763Z,21.88
2023-01-02T15:31:15.737Z,25.40
2023-01-02T15:33:43.481Z,32.00
2023-01-02T15:36:32.855Z,32.40
2023-01-02T15:39:21.546Z,30.38
2023-01-02T15:44:59.629Z,20.33
2023-01-02T15:47:28.479Z,29.98
2023-01-02T15:49:57.701Z,33.22
2023-01-02T15:52:45.015Z,33.05
2023-01-02T15:55:18.013Z,21.05
2023-01-02T15:57:55.348Z,38.15
2023-01-02T16:00:34.011Z,36.63
2023-01-02T16:03:01.297Z,32.40
2023-01-02T16:05:47.810Z,32.83
2023-01-02T16:08:37.867Z,37.05
2023-01-02T16:11:05.335Z,35.03
2023-01-02T16:14:02.011Z,33.55
2023-01-02T16:16:43.335Z,37.08
2023-01-02T16:19:19.732Z,35.90
2023-01-02T16:21:47.576Z,34.95
2023-01-02T16:24:19.708Z,37.22
2023-01-02T16:26:47.042Z,28.83
2023-01-02T16:29:16.984Z,33.05
2023-01-02T16:31:53.609Z,29.25
2023-01-02T16:34:33.405Z,39.70
2023-01-02T16:37:34.383Z,31.90
2023-01-02T16:40:59.902Z,35.20
2023-01-02T16:43:13.906Z,25.33
2023-01-02T16:45:41.409Z,31.40
2023-01-02T16:48:15.410Z,31.83
2023-01-02T16:50:45.187Z,29.25
2023-01-02T16:53:33.607Z,40.17
2023-01-02T16:56:01.063Z,33.78
2023-01-02T16:58:27.994Z,40.65
2023-01-02T17:00:56.240Z,30.70
2023-01-02T17:03:26.311Z,22.95
2023-01-02T17:06:01.876Z,34.70
2023-01-02T17:08:33.133Z,24.15
2023-01-02T17:11:01.168Z,41.05
2023-01-02T17:13:47.308Z,35.03
2023-01-02T17:16:15.357Z,40.72
2023-01-02T17:18:42.405Z,41.22
2023-01-02T17:21:09.820Z,33.53
2023-01-02T17:26:40.063Z,37.28
2023-01-02T17:29:07.006Z,38.55
2023-01-02T17:31:33.985Z,36.15
2023-01-02T17:34:03.185Z,35.45
2023-01-02T17:36:31.188Z,41.03
2023-01-02T17:38:58.315Z,30.98
2023-01-02T17:41:25.773Z,31.02
2023-01-02T17:44:01.775Z,43.17
2023-01-02T17:47:04.242Z,35.38
2023-01-02T17:49:17.656Z,32.13
2023-01-02T17:51:44.568Z,24.65
2023-01-02T17:54:30.274Z,38.25
2023-01-02T17:56:57.686Z,40.35
2023-01-02T17:59:25.085Z,41.55
2023-01-02T18:01:52.562Z,57.08
2023-01-02T18:04:19.919Z,44.92
2023-01-02T18:06:46.995Z,44.72
2023-01-02T18:09:13.869Z,42.97
2023-01-02T18:11:41.005Z,38.45
2023-01-02T18:14:23.277Z,35.45
2023-01-02T18:16:51.700Z,35.70
2023-01-02T18:19:22.441Z,33.85
2023-01-02T18:21:49.622Z,61.42
2023-01-02T18:24:25.122Z,33.55
2023-01-02T18:27:02.220Z,36.00
2023-01-02T18:29:29.194Z,33.10
2023-01-02T18:31:56.257Z,34.25
2023-01-02T18:34:47.759Z,42.10
2023-01-02T18:37:26.439Z,38.13
2023-01-02T18:39:55.043Z,46.40
2023-01-02T18:42:27.700Z,41.75
2023-01-02T18:44:57.929Z,42.15
2023-01-02T18:47:34.629Z,37.60
2023-01-02T18:50:24.325Z,37.38
2023-01-02T18:52:51.936Z,47.60
2023-01-02T18:55:31.302Z,35.75
2023-01-02T18:58:07.887Z,45.78
2023-01-02T19:00:53.870Z,50.38
2023-01-02T19:03:28.406Z,47.70
2023-01-02T19:08:35.667Z,43.92
2023-01-02T19:11:30.885Z,35.15
2023-01-02T19:13:59.107Z,50.65
2023-01-02T19:16:26.108Z,44.35
2023-01-02T19:18:56.451Z,46.22
2023-01-02T19:21:31.347Z,40.35
2023-01-02T19:24:10.050Z,38.95
2023-01-02T19:26:41.115Z,38.20
2023-01-02T19:29:11.295Z,35.20
2023-01-02T19:32:24.589Z,41.55
2023-01-02T19:35:22.711Z,39.72
2023-01-02T19:37:49.661Z,49.30
2023-01-02T19:40:22.241Z,41.75
2023-01-02T19:42:53.991Z,40.63
2023-01-02T19:45:23.424Z,42.97
2023-01-02T19:47:51.461Z,45.13
2023-01-02T19:50:24.397Z,37.40
2023-01-02T19:52:51.841Z,47.25
2023-01-02T19:55:19.247Z,45.25
2023-01-02T19:57:47.254Z,35.60
2023-01-02T20:00:16.802Z,50.67
2023-01-02T20:02:50.302Z,39.70
2023-01-02T20:05:36.894Z,39.45
2023-01-02T20:08:04.103Z,51.20
2023-01-02T20:10:30.966Z,34.80
2023-01-02T20:12:58.441Z,49.17
2023-01-02T20:15:26.968Z,36.83
2023-01-02T20:18:13.106Z,39.60
2023-01-02T20:20:40.004Z,34.97
2023-01-02T20:23:06.938Z,36.03
2023-01-02T20:25:34.012Z,27.80
2023-01-02T20:28:03.397Z,37.25
2023-01-02T20:30:30.349Z,28.92
2023-01-02T20:32:57.286Z,37.60
2023-01-02T20:35:24.237Z,33.65
2023-01-02T20:37:51.227Z,39.22
2023-01-02T20:40:18.219Z,34.33
2023-01-02T20:42:45.201Z,41.58
2023-01-02T20:45:13.121Z,33.42
2023-01-02T20:47:40.038Z,39.55
2023-01-02T20:50:07.410Z,35.20
2023-01-02T20:52:34.282Z,31.48
2023-01-02T20:55:01.202Z,34.38
2023-01-02T20:57:29.487Z,32.03
2023-01-02T20:59:56.592Z,39.78
2023-01-02T21:02:23.841Z,37.15
2023-01-02T21:04:50.799Z,50.35
2023-01-02T21:07:18.058Z,36.17
2023-01-02T21:09:45.073Z,43.22
2023-01-02T21:12:32.003Z,50.65
2023-01-02T21:14:58.919Z,37.17
2023-01-02T21:17:25.820Z,37.30
2023-01-02T21:19:52.772Z,42.25
2023-01-02T21:22:19.637Z,36.05
2023-01-02T21:24:47.130Z,44.28
2023-01-02T21:27:14.898Z,45.22
2023-01-02T21:29:42.482Z,38.33
2023-01-02T21:32:09.487Z,38.60
2023-01-02T21:34:55.073Z,36.65
2023-01-02T21:37:22.140Z,38.60
2023-01-02T21:39:49.794Z,36.38
2023-01-02T21:42:16.693Z,34.15
2023-01-02T21:44:47.239Z,38.00
2023-01-02T21:47:16.545Z,42.47
2023-01-02T21:49:44.318Z,37.85
2023-01-02T21:52:11.406Z,32.28
2023-01-02T21:57:38.649Z,33.72
2023-01-02T22:00:14.957Z,40.17
2023-01-02T22:02:43.426Z,36.20
2023-01-02T22:05:12.701Z,36.10
2023-01-02T22:07:42.599Z,38.35
2023-01-02T22:10:11.366Z,41.75
2023-01-02T22:12:40.197Z,43.25
2023-01-02T22:15:09.162Z,34.10
2023-01-02T22:17:36.099Z,29.20
2023-01-02T22:20:03.124Z,33.13
2023-01-02T22:22:30.022Z,49.38
2023-01-02T22:24:57.038Z,42.97
2023-01-02T22:27:24.079Z,38.83
2023-01-02T22:32:42.238Z,41.58
2023-01-02T22:35:09.900Z,36.08
2023-01-02T22:37:37.053Z,45.40
2023-01-02T22:40:04.315Z,35.53
2023-01-02T22:43:08.251Z,37.80
2023-01-02T22:45:48.876Z,35.28
2023-01-02T22:48:18.596Z,60.92
2023-01-02T22:50:47.084Z,40.65
2023-01-02T22:53:34.951Z,54.15
2023-01-02T22:56:06.670Z,50.38
2023-01-02T22:58:33.589Z,50.58
2023-01-02T23:03:51.881Z,35.78
2023-01-02T23:06:22.209Z,42.10
2023-01-02T23:08:51.813Z,39.45
2023-01-02T23:11:20.579Z,42.58
2023-01-02T23:13:54.534Z,45.53
2023-01-02T23:16:44.473Z,40.90
2023-01-02T23:22:00.908Z,31.50
2023-01-02T23:24:35.251Z,44.33
2023-01-02T23:27:07.121Z,37.33
2023-01-02T23:29:34.864Z,52.03
2023-01-02T23:32:05.378Z,34.65
2023-01-02T23:34:32.715Z,33.60
2023-01-02T23:37:18.535Z,49.30
2023-01-02T23:39:45.640Z,36.35
2023-01-02T23:42:12.472Z,38.60
2023-01-02T23:44:39.699Z,35.50
2023-01-02T23:47:10.246Z,47.58
2023-01-02T23:52:08.225Z,44.55
2023-01-02T23:54:35.197Z,40.08
2023-01-02T23:57:05.432Z,40.75
2023-01-02T23:59:32.525Z,40.30
